sensor_id;sensor_type;location;lat;lon;timestamp;pressure;altitude;pressure_sealevel;temperature;humidity
37972;BME280;23794;48.234;8.344;2023-12-20T00:01:36;94270.59;;;3.79;80.27
37972;BME280;23794;48.234;8.344;2023-12-20T00:04:03;94267.13;;;3.79;80.62
37972;BME280;23794;48.234;8.344;2023-12-20T00:06:30;94257.34;;;3.74;80.84
37972;BME280;23794;48.234;8.344;2023-12-20T00:08:57;94266.53;;;3.69;81.38
37972;BME280;23794;48.234;8.344;2023-12-20T00:11:26;94261.25;;;3.76;80.85
37972;BME280;23794;48.234;8.344;2023-12-20T00:13:53;94250.78;;;3.75;81.21
37972;BME280;23794;48.234;8.344;2023-12-20T00:16:19;94244.94;;;3.73;81.45
37972;BME280;23794;48.234;8.344;2023-12-20T00:18:46;94238.94;;;3.83;81.02
37972;BME280;23794;48.234;8.344;2023-12-20T00:21:13;94248.28;;;3.86;81.35
37972;BME280;23794;48.234;8.344;2023-12-20T00:23:39;94246.50;;;3.74;82.64
37972;BME280;23794;48.234;8.344;2023-12-20T00:26:06;94250.19;;;3.66;83.44
37972;BME280;23794;48.234;8.344;2023-12-20T00:28:33;94241.72;;;3.67;83.27
37972;BME280;23794;48.234;8.344;2023-12-20T00:30:59;94240.66;;;3.72;83.42
37972;BME280;23794;48.234;8.344;2023-12-20T00:33:26;94246.00;;;3.68;83.83
37972;BME280;23794;48.234;8.344;2023-12-20T00:35:53;94237.28;;;3.59;84.53
37972;BME280;23794;48.234;8.344;2023-12-20T00:38:19;94243.50;;;3.59;85.01
37972;BME280;23794;48.234;8.344;2023-12-20T00:40:46;94242.97;;;3.54;85.58
37972;BME280;23794;48.234;8.344;2023-12-20T00:43:13;94243.41;;;3.56;85.27
37972;BME280;23794;48.234;8.344;2023-12-20T00:45:39;94243.22;;;3.65;84.84
37972;BME280;23794;48.234;8.344;2023-12-20T00:48:06;94240.88;;;3.63;84.96
37972;BME280;23794;48.234;8.344;2023-12-20T00:50:33;94240.13;;;3.66;85.21
37972;BME280;23794;48.234;8.344;2023-12-20T00:52:59;94236.66;;;3.66;85.79
37972;BME280;23794;48.234;8.344;2023-12-20T00:55:26;94233.13;;;3.65;85.77
37972;BME280;23794;48.234;8.344;2023-12-20T00:57:53;94239.44;;;3.69;85.67
37972;BME280;23794;48.234;8.344;2023-12-20T01:00:20;94233.22;;;3.69;86.13
37972;BME280;23794;48.234;8.344;2023-12-20T01:02:47;94244.06;;;3.69;86.69
37972;BME280;23794;48.234;8.344;2023-12-20T01:05:15;94235.16;;;3.68;86.98
37972;BME280;23794;48.234;8.344;2023-12-20T01:07:42;94236.66;;;3.66;87.36
37972;BME280;23794;48.234;8.344;2023-12-20T01:10:09;94233.88;;;3.62;88.10
37972;BME280;23794;48.234;8.344;2023-12-20T01:12:36;94245.56;;;3.66;87.38
37972;BME280;23794;48.234;8.344;2023-12-20T01:15:03;94237.09;;;3.68;87.67
37972;BME280;23794;48.234;8.344;2023-12-20T01:17:30;94247.13;;;3.67;87.99
37972;BME280;23794;48.234;8.344;2023-12-20T01:19:56;94235.44;;;3.63;88.19
37972;BME280;23794;48.234;8.344;2023-12-20T01:22:23;94237.88;;;3.68;87.82
37972;BME280;23794;48.234;8.344;2023-12-20T01:24:49;94243.72;;;3.70;88.02
37972;BME280;23794;48.234;8.344;2023-12-20T01:27:16;94239.50;;;3.73;87.42
37972;BME280;23794;48.234;8.344;2023-12-20T01:29:43;94244.19;;;3.76;87.33
37972;BME280;23794;48.234;8.344;2023-12-20T01:32:09;94251.91;;;3.74;87.72
37972;BME280;23794;48.234;8.344;2023-12-20T01:34:36;94253.06;;;3.73;87.91
37972;BME280;23794;48.234;8.344;2023-12-20T01:37:03;94260.66;;;3.67;88.05
37972;BME280;23794;48.234;8.344;2023-12-20T01:39:30;94271.94;;;3.69;87.92
37972;BME280;23794;48.234;8.344;2023-12-20T01:41:57;94270.53;;;3.75;87.44
37972;BME280;23794;48.234;8.344;2023-12-20T01:44:24;94265.38;;;3.70;87.95
37972;BME280;23794;48.234;8.344;2023-12-20T01:46:51;94264.94;;;3.68;88.10
37972;BME280;23794;48.234;8.344;2023-12-20T01:49:17;94266.09;;;3.67;88.18
37972;BME280;23794;48.234;8.344;2023-12-20T01:51:44;94272.31;;;3.68;88.30
37972;BME280;23794;48.234;8.344;2023-12-20T01:54:12;94275.34;;;3.66;88.30
37972;BME280;23794;48.234;8.344;2023-12-20T01:56:39;94269.94;;;3.66;88.29
37972;BME280;23794;48.234;8.344;2023-12-20T01:59:06;94268.81;;;3.67;88.36
37972;BME280;23794;48.234;8.344;2023-12-20T02:01:34;94257.03;;;3.59;88.30
37972;BME280;23794;48.234;8.344;2023-12-20T02:04:01;94260.88;;;3.58;88.44
37972;BME280;23794;48.234;8.344;2023-12-20T02:06:30;94264.72;;;3.57;88.38
37972;BME280;23794;48.234;8.344;2023-12-20T02:08:59;94246.97;;;3.60;88.19
37972;BME280;23794;48.234;8.344;2023-12-20T02:11:26;94253.81;;;3.54;88.18
37972;BME280;23794;48.234;8.344;2023-12-20T02:13:53;94246.47;;;3.54;88.39
37972;BME280;23794;48.234;8.344;2023-12-20T02:16:21;94255.03;;;3.56;88.24
37972;BME280;23794;48.234;8.344;2023-12-20T02:18:48;94256.59;;;3.57;88.33
37972;BME280;23794;48.234;8.344;2023-12-20T02:21:15;94254.59;;;3.54;88.26
37972;BME280;23794;48.234;8.344;2023-12-20T02:23:41;94259.31;;;3.57;88.52
37972;BME280;23794;48.234;8.344;2023-12-20T02:26:08;94252.84;;;3.62;87.84
37972;BME280;23794;48.234;8.344;2023-12-20T02:28:35;94248.47;;;3.57;88.10
37972;BME280;23794;48.234;8.344;2023-12-20T02:31:02;94254.50;;;3.51;88.27
37972;BME280;23794;48.234;8.344;2023-12-20T02:33:29;94258.78;;;3.52;88.34
37972;BME280;23794;48.234;8.344;2023-12-20T02:35:56;94254.38;;;3.43;88.05
37972;BME280;23794;48.234;8.344;2023-12-20T02:38:23;94249.94;;;3.35;87.86
37972;BME280;23794;48.234;8.344;2023-12-20T02:40:49;94257.78;;;3.40;87.56
37972;BME280;23794;48.234;8.344;2023-12-20T02:43:16;94250.88;;;3.43;87.79
37972;BME280;23794;48.234;8.344;2023-12-20T02:45:43;94259.78;;;3.43;87.69
37972;BME280;23794;48.234;8.344;2023-12-20T02:48:09;94262.56;;;3.47;87.38
37972;BME280;23794;48.234;8.344;2023-12-20T02:50:36;94263.22;;;3.40;87.32
37972;BME280;23794;48.234;8.344;2023-12-20T02:53:03;94260.50;;;3.40;87.36
37972;BME280;23794;48.234;8.344;2023-12-20T02:55:29;94258.06;;;3.35;88.10
37972;BME280;23794;48.234;8.344;2023-12-20T02:57:56;94263.53;;;3.39;87.37
37972;BME280;23794;48.234;8.344;2023-12-20T03:00:23;94264.72;;;3.38;87.49
37972;BME280;23794;48.234;8.344;2023-12-20T03:02:50;94259.63;;;3.36;87.18
37972;BME280;23794;48.234;8.344;2023-12-20T03:05:17;94263.06;;;3.33;87.42
37972;BME280;23794;48.234;8.344;2023-12-20T03:07:43;94261.41;;;3.28;87.80
37972;BME280;23794;48.234;8.344;2023-12-20T03:10:11;94264.09;;;3.28;87.32
37972;BME280;23794;48.234;8.344;2023-12-20T03:12:49;94269.94;;;3.31;86.92
37972;BME280;23794;48.234;8.344;2023-12-20T03:15:16;94271.44;;;3.28;87.52
37972;BME280;23794;48.234;8.344;2023-12-20T03:17:42;94274.94;;;3.28;86.93
37972;BME280;23794;48.234;8.344;2023-12-20T03:20:09;94275.72;;;3.29;87.20
37972;BME280;23794;48.234;8.344;2023-12-20T03:22:36;94273.47;;;3.15;87.27
37972;BME280;23794;48.234;8.344;2023-12-20T03:25:02;94271.53;;;3.16;87.63
37972;BME280;23794;48.234;8.344;2023-12-20T03:27:29;94265.88;;;3.05;87.34
37972;BME280;23794;48.234;8.344;2023-12-20T03:29:56;94267.38;;;3.02;87.57
37972;BME280;23794;48.234;8.344;2023-12-20T03:32:23;94279.50;;;3.08;87.04
37972;BME280;23794;48.234;8.344;2023-12-20T03:34:49;94276.00;;;3.08;87.25
37972;BME280;23794;48.234;8.344;2023-12-20T03:37:16;94288.41;;;3.09;86.55
37972;BME280;23794;48.234;8.344;2023-12-20T03:39:43;94291.03;;;3.05;86.62
37972;BME280;23794;48.234;8.344;2023-12-20T03:42:09;94296.44;;;3.05;87.23
37972;BME280;23794;48.234;8.344;2023-12-20T03:44:38;94294.84;;;3.04;87.01
37972;BME280;23794;48.234;8.344;2023-12-20T03:47:06;94297.66;;;3.08;86.51
37972;BME280;23794;48.234;8.344;2023-12-20T03:49:32;94296.00;;;3.03;86.97
37972;BME280;23794;48.234;8.344;2023-12-20T03:51:59;94306.84;;;3.03;86.63
37972;BME280;23794;48.234;8.344;2023-12-20T03:54:26;94302.19;;;3.04;86.75
37972;BME280;23794;48.234;8.344;2023-12-20T03:56:53;94306.47;;;3.05;86.67
37972;BME280;23794;48.234;8.344;2023-12-20T03:59:19;94304.06;;;3.00;86.60
37972;BME280;23794;48.234;8.344;2023-12-20T04:01:46;94304.22;;;2.91;86.79
37972;BME280;23794;48.234;8.344;2023-12-20T04:04:13;94303.78;;;2.89;86.82
37972;BME280;23794;48.234;8.344;2023-12-20T04:06:40;94300.88;;;2.81;87.29
37972;BME280;23794;48.234;8.344;2023-12-20T04:09:07;94294.59;;;2.77;87.45
37972;BME280;23794;48.234;8.344;2023-12-20T04:11:36;94297.84;;;2.83;87.35
37972;BME280;23794;48.234;8.344;2023-12-20T04:14:03;94306.66;;;2.80;87.60
37972;BME280;23794;48.234;8.344;2023-12-20T04:16:31;94308.31;;;2.85;87.51
37972;BME280;23794;48.234;8.344;2023-12-20T04:18:57;94297.94;;;2.87;86.84
37972;BME280;23794;48.234;8.344;2023-12-20T04:21:24;94303.50;;;2.78;87.56
37972;BME280;23794;48.234;8.344;2023-12-20T04:23:51;94301.16;;;2.76;87.78
37972;BME280;23794;48.234;8.344;2023-12-20T04:26:17;94290.31;;;2.76;87.31
37972;BME280;23794;48.234;8.344;2023-12-20T04:28:44;94291.63;;;2.83;87.29
37972;BME280;23794;48.234;8.344;2023-12-20T04:31:11;94304.38;;;2.82;87.25
37972;BME280;23794;48.234;8.344;2023-12-20T04:33:38;94315.91;;;2.79;87.72
37972;BME280;23794;48.234;8.344;2023-12-20T04:36:05;94317.22;;;2.85;87.51
37972;BME280;23794;48.234;8.344;2023-12-20T04:38:31;94315.75;;;2.88;87.80
37972;BME280;23794;48.234;8.344;2023-12-20T04:40:58;94321.47;;;2.86;87.99
37972;BME280;23794;48.234;8.344;2023-12-20T04:43:25;94314.53;;;2.85;88.33
37972;BME280;23794;48.234;8.344;2023-12-20T04:45:52;94319.81;;;2.81;88.04
37972;BME280;23794;48.234;8.344;2023-12-20T04:48:18;94310.25;;;2.84;88.19
37972;BME280;23794;48.234;8.344;2023-12-20T04:50:45;94320.25;;;2.84;88.49
37972;BME280;23794;48.234;8.344;2023-12-20T04:53:12;94314.16;;;2.87;88.20
37972;BME280;23794;48.234;8.344;2023-12-20T04:55:39;94320.19;;;2.96;87.66
37972;BME280;23794;48.234;8.344;2023-12-20T04:58:05;94319.31;;;2.92;88.30
37972;BME280;23794;48.234;8.344;2023-12-20T05:00:32;94326.31;;;2.93;88.41
37972;BME280;23794;48.234;8.344;2023-12-20T05:02:59;94332.56;;;2.81;88.78
37972;BME280;23794;48.234;8.344;2023-12-20T05:05:26;94328.16;;;2.89;88.39
37972;BME280;23794;48.234;8.344;2023-12-20T05:07:53;94329.19;;;2.84;88.95
37972;BME280;23794;48.234;8.344;2023-12-20T05:10:19;94328.81;;;2.86;89.41
37972;BME280;23794;48.234;8.344;2023-12-20T05:12:46;94329.78;;;2.93;88.67
37972;BME280;23794;48.234;8.344;2023-12-20T05:15:13;94333.38;;;2.97;88.89
37972;BME280;23794;48.234;8.344;2023-12-20T05:17:39;94348.91;;;3.01;88.82
37972;BME280;23794;48.234;8.344;2023-12-20T05:20:07;94340.19;;;2.91;89.20
37972;BME280;23794;48.234;8.344;2023-12-20T05:22:34;94348.41;;;2.95;89.57
37972;BME280;23794;48.234;8.344;2023-12-20T05:25:01;94347.69;;;2.98;89.39
37972;BME280;23794;48.234;8.344;2023-12-20T05:27:28;94352.84;;;3.03;88.95
37972;BME280;23794;48.234;8.344;2023-12-20T05:29:54;94346.91;;;2.97;89.17
37972;BME280;23794;48.234;8.344;2023-12-20T05:32:24;94344.66;;;3.00;89.23
37972;BME280;23794;48.234;8.344;2023-12-20T05:34:51;94345.88;;;3.02;89.10
37972;BME280;23794;48.234;8.344;2023-12-20T05:37:18;94354.31;;;3.01;89.32
37972;BME280;23794;48.234;8.344;2023-12-20T05:39:45;94359.13;;;3.07;89.13
37972;BME280;23794;48.234;8.344;2023-12-20T05:42:12;94360.09;;;3.15;88.84
37972;BME280;23794;48.234;8.344;2023-12-20T05:44:38;94359.38;;;3.18;88.73
37972;BME280;23794;48.234;8.344;2023-12-20T05:47:05;94360.53;;;3.17;88.45
37972;BME280;23794;48.234;8.344;2023-12-20T05:49:32;94351.63;;;3.17;88.57
37972;BME280;23794;48.234;8.344;2023-12-20T05:51:59;94361.66;;;3.16;88.61
37972;BME280;23794;48.234;8.344;2023-12-20T05:54:25;94366.66;;;3.14;88.95
37972;BME280;23794;48.234;8.344;2023-12-20T05:56:52;94379.47;;;3.17;89.23
37972;BME280;23794;48.234;8.344;2023-12-20T05:59:18;94383.22;;;3.12;89.44
37972;BME280;23794;48.234;8.344;2023-12-20T06:01:45;94382.53;;;3.16;88.95
37972;BME280;23794;48.234;8.344;2023-12-20T06:04:12;94388.41;;;3.18;89.56
37972;BME280;23794;48.234;8.344;2023-12-20T06:06:42;94396.16;;;3.19;89.14
37972;BME280;23794;48.234;8.344;2023-12-20T06:09:10;94398.50;;;3.21;89.37
37972;BME280;23794;48.234;8.344;2023-12-20T06:11:37;94409.50;;;3.28;88.93
37972;BME280;23794;48.234;8.344;2023-12-20T06:14:04;94406.31;;;3.22;88.98
37972;BME280;23794;48.234;8.344;2023-12-20T06:16:31;94403.91;;;3.21;89.40
37972;BME280;23794;48.234;8.344;2023-12-20T06:18:57;94411.63;;;3.19;89.01
37972;BME280;23794;48.234;8.344;2023-12-20T06:21:24;94424.19;;;3.27;89.20
37972;BME280;23794;48.234;8.344;2023-12-20T06:23:51;94417.91;;;3.23;88.56
37972;BME280;23794;48.234;8.344;2023-12-20T06:26:18;94416.25;;;3.18;88.84
37972;BME280;23794;48.234;8.344;2023-12-20T06:28:44;94417.91;;;3.23;88.63
37972;BME280;23794;48.234;8.344;2023-12-20T06:31:11;94424.97;;;3.27;88.95
37972;BME280;23794;48.234;8.344;2023-12-20T06:33:38;94422.72;;;3.30;88.64
37972;BME280;23794;48.234;8.344;2023-12-20T06:36:07;94417.63;;;3.28;88.88
37972;BME280;23794;48.234;8.344;2023-12-20T06:38:34;94420.19;;;3.37;88.88
37972;BME280;23794;48.234;8.344;2023-12-20T06:41:00;94419.06;;;3.38;88.75
37972;BME280;23794;48.234;8.344;2023-12-20T06:43:27;94418.97;;;3.34;88.67
37972;BME280;23794;48.234;8.344;2023-12-20T06:46:12;94426.97;;;3.31;88.55
37972;BME280;23794;48.234;8.344;2023-12-20T06:48:39;94423.75;;;3.25;88.50
37972;BME280;23794;48.234;8.344;2023-12-20T06:51:12;94433.38;;;3.22;88.81
37972;BME280;23794;48.234;8.344;2023-12-20T06:53:39;94437.31;;;3.25;88.84
37972;BME280;23794;48.234;8.344;2023-12-20T06:56:05;94444.34;;;3.13;88.60
37972;BME280;23794;48.234;8.344;2023-12-20T06:58:33;94450.97;;;3.16;89.04
37972;BME280;23794;48.234;8.344;2023-12-20T07:01:00;94444.03;;;3.15;89.13
37972;BME280;23794;48.234;8.344;2023-12-20T07:03:27;94446.38;;;3.17;89.09
37972;BME280;23794;48.234;8.344;2023-12-20T07:05:54;94453.19;;;3.10;89.19
37972;BME280;23794;48.234;8.344;2023-12-20T07:08:20;94444.59;;;3.08;89.16
37972;BME280;23794;48.234;8.344;2023-12-20T07:10:47;94443.22;;;3.15;89.40
37972;BME280;23794;48.234;8.344;2023-12-20T07:13:13;94450.31;;;3.19;89.30
37972;BME280;23794;48.234;8.344;2023-12-20T07:15:40;94455.13;;;3.26;88.99
37972;BME280;23794;48.234;8.344;2023-12-20T07:18:07;94461.41;;;3.14;89.34
37972;BME280;23794;48.234;8.344;2023-12-20T07:20:34;94459.47;;;3.15;89.25
37972;BME280;23794;48.234;8.344;2023-12-20T07:23:01;94470.81;;;3.20;89.25
37972;BME280;23794;48.234;8.344;2023-12-20T07:25:30;94462.88;;;3.11;89.23
37972;BME280;23794;48.234;8.344;2023-12-20T07:27:59;94469.31;;;3.07;89.48
37972;BME280;23794;48.234;8.344;2023-12-20T07:30:26;94467.75;;;3.06;89.37
37972;BME280;23794;48.234;8.344;2023-12-20T07:32:52;94463.22;;;3.10;89.53
37972;BME280;23794;48.234;8.344;2023-12-20T07:35:19;94466.34;;;3.12;89.46
37972;BME280;23794;48.234;8.344;2023-12-20T07:37:46;94457.00;;;3.09;89.55
37972;BME280;23794;48.234;8.344;2023-12-20T07:40:13;94467.84;;;3.09;89.61
37972;BME280;23794;48.234;8.344;2023-12-20T07:42:40;94479.81;;;3.08;89.54
37972;BME280;23794;48.234;8.344;2023-12-20T07:45:07;94469.50;;;3.14;89.72
37972;BME280;23794;48.234;8.344;2023-12-20T07:47:33;94475.25;;;3.12;89.42
37972;BME280;23794;48.234;8.344;2023-12-20T07:50:00;94474.84;;;3.10;90.02
37972;BME280;23794;48.234;8.344;2023-12-20T07:52:27;94482.69;;;3.16;89.50
37972;BME280;23794;48.234;8.344;2023-12-20T07:54:54;94487.63;;;3.26;89.20
37972;BME280;23794;48.234;8.344;2023-12-20T07:57:21;94491.00;;;3.23;89.01
37972;BME280;23794;48.234;8.344;2023-12-20T07:59:47;94495.97;;;3.21;89.31
37972;BME280;23794;48.234;8.344;2023-12-20T08:02:14;94499.81;;;3.20;88.89
37972;BME280;23794;48.234;8.344;2023-12-20T08:04:41;94503.06;;;3.25;89.01
37972;BME280;23794;48.234;8.344;2023-12-20T08:07:08;94502.78;;;3.31;88.54
37972;BME280;23794;48.234;8.344;2023-12-20T08:09:34;94514.59;;;3.22;89.11
37972;BME280;23794;48.234;8.344;2023-12-20T08:12:03;94511.97;;;3.26;88.39
37972;BME280;23794;48.234;8.344;2023-12-20T08:14:31;94500.53;;;3.33;88.65
37972;BME280;23794;48.234;8.344;2023-12-20T08:16:58;94504.03;;;3.33;88.30
37972;BME280;23794;48.234;8.344;2023-12-20T08:19:24;94509.09;;;3.19;89.03
37972;BME280;23794;48.234;8.344;2023-12-20T08:21:51;94505.00;;;3.25;88.80
37972;BME280;23794;48.234;8.344;2023-12-20T08:24:18;94500.16;;;3.18;88.67
37972;BME280;23794;48.234;8.344;2023-12-20T08:26:45;94499.72;;;3.16;88.15
37972;BME280;23794;48.234;8.344;2023-12-20T08:29:13;94505.84;;;3.13;88.55
37972;BME280;23794;48.234;8.344;2023-12-20T08:31:40;94496.69;;;3.18;89.08
37972;BME280;23794;48.234;8.344;2023-12-20T08:34:07;94494.84;;;3.22;88.46
37972;BME280;23794;48.234;8.344;2023-12-20T08:36:34;94497.00;;;3.16;88.40
37972;BME280;23794;48.234;8.344;2023-12-20T08:39:01;94495.94;;;3.05;88.92
37972;BME280;23794;48.234;8.344;2023-12-20T08:41:30;94498.66;;;3.05;89.21
37972;BME280;23794;48.234;8.344;2023-12-20T08:43:56;94505.22;;;3.20;88.79
37972;BME280;23794;48.234;8.344;2023-12-20T08:46:23;94506.69;;;3.17;88.14
37972;BME280;23794;48.234;8.344;2023-12-20T08:48:50;94506.47;;;3.22;87.68
37972;BME280;23794;48.234;8.344;2023-12-20T08:51:17;94505.66;;;3.06;86.72
37972;BME280;23794;48.234;8.344;2023-12-20T08:53:43;94507.25;;;2.94;86.75
37972;BME280;23794;48.234;8.344;2023-12-20T08:56:12;94508.53;;;2.85;86.93
37972;BME280;23794;48.234;8.344;2023-12-20T08:58:38;94507.84;;;2.88;87.47
37972;BME280;23794;48.234;8.344;2023-12-20T09:01:05;94509.19;;;2.94;87.26
37972;BME280;23794;48.234;8.344;2023-12-20T09:03:32;94510.31;;;2.93;87.21
37972;BME280;23794;48.234;8.344;2023-12-20T09:05:59;94514.69;;;2.97;87.34
37972;BME280;23794;48.234;8.344;2023-12-20T09:08:25;94512.91;;;2.89;87.09
37972;BME280;23794;48.234;8.344;2023-12-20T09:10:52;94520.78;;;2.94;87.32
37972;BME280;23794;48.234;8.344;2023-12-20T09:13:19;94530.47;;;2.95;87.04
37972;BME280;23794;48.234;8.344;2023-12-20T09:15:47;94530.38;;;2.92;86.77
37972;BME280;23794;48.234;8.344;2023-12-20T09:18:13;94531.09;;;2.89;87.35
37972;BME280;23794;48.234;8.344;2023-12-20T09:20:40;94533.75;;;2.60;86.99
37972;BME280;23794;48.234;8.344;2023-12-20T09:23:09;94534.19;;;2.62;87.12
37972;BME280;23794;48.234;8.344;2023-12-20T09:25:36;94531.16;;;2.64;87.12
37972;BME280;23794;48.234;8.344;2023-12-20T09:28:03;94533.06;;;2.63;87.27
37972;BME280;23794;48.234;8.344;2023-12-20T09:30:29;94538.19;;;2.81;87.08
37972;BME280;23794;48.234;8.344;2023-12-20T09:32:56;94550.16;;;2.80;86.89
37972;BME280;23794;48.234;8.344;2023-12-20T09:35:23;94549.59;;;2.74;86.75
37972;BME280;23794;48.234;8.344;2023-12-20T09:37:50;94545.44;;;2.77;87.33
37972;BME280;23794;48.234;8.344;2023-12-20T09:40:19;94542.78;;;2.93;87.43
37972;BME280;23794;48.234;8.344;2023-12-20T09:43:03;94548.31;;;2.96;87.48
37972;BME280;23794;48.234;8.344;2023-12-20T09:45:31;94553.41;;;2.86;86.89
37972;BME280;23794;48.234;8.344;2023-12-20T09:47:58;94548.75;;;2.99;87.13
37972;BME280;23794;48.234;8.344;2023-12-20T09:50:26;94548.94;;;3.06;86.99
37972;BME280;23794;48.234;8.344;2023-12-20T09:52:53;94556.31;;;2.93;86.39
37972;BME280;23794;48.234;8.344;2023-12-20T09:55:21;94560.59;;;2.94;86.51
37972;BME280;23794;48.234;8.344;2023-12-20T09:57:49;94551.94;;;2.88;86.20
37972;BME280;23794;48.234;8.344;2023-12-20T10:00:16;94552.84;;;2.80;85.99
37972;BME280;23794;48.234;8.344;2023-12-20T10:02:54;94554.22;;;2.74;86.53
37972;BME280;23794;48.234;8.344;2023-12-20T10:05:33;94550.81;;;2.89;85.97
37972;BME280;23794;48.234;8.344;2023-12-20T10:08:00;94555.28;;;2.97;85.60
37972;BME280;23794;48.234;8.344;2023-12-20T10:10:28;94542.72;;;3.05;85.64
37972;BME280;23794;48.234;8.344;2023-12-20T10:13:11;94560.75;;;2.85;85.59
37972;BME280;23794;48.234;8.344;2023-12-20T10:15:38;94552.38;;;2.90;85.78
37972;BME280;23794;48.234;8.344;2023-12-20T10:18:06;94561.38;;;2.94;85.43
37972;BME280;23794;48.234;8.344;2023-12-20T10:20:33;94551.88;;;3.01;84.49
37972;BME280;23794;48.234;8.344;2023-12-20T10:23:01;94544.41;;;3.10;83.92
37972;BME280;23794;48.234;8.344;2023-12-20T10:25:28;94546.09;;;3.15;84.24
37972;BME280;23794;48.234;8.344;2023-12-20T10:28:14;94540.09;;;3.21;83.36
37972;BME280;23794;48.234;8.344;2023-12-20T10:30:41;94533.97;;;3.24;82.99
37972;BME280;23794;48.234;8.344;2023-12-20T10:33:09;94532.91;;;3.13;83.25
37972;BME280;23794;48.234;8.344;2023-12-20T10:35:38;94532.34;;;3.07;83.68
37972;BME280;23794;48.234;8.344;2023-12-20T10:38:10;94524.72;;;2.97;84.61
37972;BME280;23794;48.234;8.344;2023-12-20T10:40:37;94515.91;;;3.00;84.57
37972;BME280;23794;48.234;8.344;2023-12-20T10:43:07;94522.91;;;3.01;84.48
37972;BME280;23794;48.234;8.344;2023-12-20T10:45:35;94514.63;;;3.10;84.62
37972;BME280;23794;48.234;8.344;2023-12-20T10:48:03;94509.97;;;3.23;84.67
37972;BME280;23794;48.234;8.344;2023-12-20T10:50:31;94512.03;;;3.13;84.72
37972;BME280;23794;48.234;8.344;2023-12-20T10:52:58;94518.16;;;3.26;84.70
37972;BME280;23794;48.234;8.344;2023-12-20T10:55:25;94516.28;;;3.43;83.56
37972;BME280;23794;48.234;8.344;2023-12-20T10:57:55;94523.19;;;3.40;83.44
37972;BME280;23794;48.234;8.344;2023-12-20T11:00:29;94532.50;;;3.27;82.84
37972;BME280;23794;48.234;8.344;2023-12-20T11:03:00;94530.09;;;3.38;83.67
37972;BME280;23794;48.234;8.344;2023-12-20T11:05:38;94518.47;;;3.37;82.82
37972;BME280;23794;48.234;8.344;2023-12-20T11:08:20;94524.16;;;3.20;82.42
37972;BME280;23794;48.234;8.344;2023-12-20T11:10:57;94521.59;;;2.95;82.34
37972;BME280;23794;48.234;8.344;2023-12-20T11:13:35;94509.47;;;3.05;82.21
37972;BME280;23794;48.234;8.344;2023-12-20T11:16:03;94521.09;;;2.77;82.26
37972;BME280;23794;48.234;8.344;2023-12-20T11:18:31;94520.19;;;2.73;83.40
37972;BME280;23794;48.234;8.344;2023-12-20T11:21:01;94514.41;;;2.87;82.96
37972;BME280;23794;48.234;8.344;2023-12-20T11:23:30;94522.97;;;2.89;81.49
37972;BME280;23794;48.234;8.344;2023-12-20T11:25:57;94522.41;;;2.83;82.46
37972;BME280;23794;48.234;8.344;2023-12-20T11:28:26;94530.84;;;2.94;82.94
37972;BME280;23794;48.234;8.344;2023-12-20T11:30:54;94524.78;;;2.85;81.86
37972;BME280;23794;48.234;8.344;2023-12-20T11:33:24;94527.94;;;2.74;81.93
37972;BME280;23794;48.234;8.344;2023-12-20T11:35:57;94527.28;;;2.77;82.01
37972;BME280;23794;48.234;8.344;2023-12-20T11:38:24;94521.28;;;2.84;82.10
37972;BME280;23794;48.234;8.344;2023-12-20T11:40:53;94522.88;;;2.85;82.06
37972;BME280;23794;48.234;8.344;2023-12-20T11:43:35;94522.88;;;2.85;81.43
37972;BME280;23794;48.234;8.344;2023-12-20T11:46:06;94510.69;;;2.79;81.40
37972;BME280;23794;48.234;8.344;2023-12-20T11:48:39;94529.91;;;2.61;82.25
37972;BME280;23794;48.234;8.344;2023-12-20T11:51:12;94521.00;;;2.61;81.95
37972;BME280;23794;48.234;8.344;2023-12-20T11:53:40;94519.41;;;2.72;81.32
37972;BME280;23794;48.234;8.344;2023-12-20T11:56:09;94521.47;;;2.63;81.89
37972;BME280;23794;48.234;8.344;2023-12-20T11:58:36;94508.91;;;2.71;81.48
37972;BME280;23794;48.234;8.344;2023-12-20T12:01:03;94520.84;;;2.82;81.88
37972;BME280;23794;48.234;8.344;2023-12-20T12:03:31;94515.78;;;2.80;81.68
37972;BME280;23794;48.234;8.344;2023-12-20T12:05:57;94514.41;;;2.74;81.40
37972;BME280;23794;48.234;8.344;2023-12-20T12:08:25;94513.69;;;2.61;80.92
37972;BME280;23794;48.234;8.344;2023-12-20T12:10:51;94514.00;;;2.72;81.83
37972;BME280;23794;48.234;8.344;2023-12-20T12:13:18;94520.28;;;2.76;80.97
37972;BME280;23794;48.234;8.344;2023-12-20T12:15:45;94517.59;;;2.76;81.00
37972;BME280;23794;48.234;8.344;2023-12-20T12:18:16;94514.97;;;2.80;81.90
37972;BME280;23794;48.234;8.344;2023-12-20T12:20:44;94507.06;;;2.87;81.29
37972;BME280;23794;48.234;8.344;2023-12-20T12:23:11;94500.81;;;2.99;81.74
37972;BME280;23794;48.234;8.344;2023-12-20T12:25:37;94509.09;;;2.90;80.45
37972;BME280;23794;48.234;8.344;2023-12-20T12:28:08;94502.69;;;3.11;81.11
37972;BME280;23794;48.234;8.344;2023-12-20T12:30:35;94516.56;;;3.09;81.49
37972;BME280;23794;48.234;8.344;2023-12-20T12:33:11;94512.09;;;3.01;80.21
37972;BME280;23794;48.234;8.344;2023-12-20T12:35:38;94512.25;;;2.92;80.61
37972;BME280;23794;48.234;8.344;2023-12-20T12:38:07;94516.41;;;2.90;80.85
37972;BME280;23794;48.234;8.344;2023-12-20T12:40:35;94516.19;;;2.95;80.88
37972;BME280;23794;48.234;8.344;2023-12-20T12:43:02;94519.81;;;2.87;79.47
37972;BME280;23794;48.234;8.344;2023-12-20T12:45:31;94536.41;;;2.73;79.17
37972;BME280;23794;48.234;8.344;2023-12-20T12:47:58;94523.34;;;2.75;80.38
37972;BME280;23794;48.234;8.344;2023-12-20T12:50:24;94528.75;;;2.75;80.71
37972;BME280;23794;48.234;8.344;2023-12-20T12:52:51;94520.75;;;2.78;80.59
37972;BME280;23794;48.234;8.344;2023-12-20T12:55:18;94521.50;;;2.79;81.67
37972;BME280;23794;48.234;8.344;2023-12-20T12:57:44;94518.38;;;2.77;81.21
37972;BME280;23794;48.234;8.344;2023-12-20T13:00:12;94519.41;;;2.72;81.23
37972;BME280;23794;48.234;8.344;2023-12-20T13:02:39;94510.16;;;2.73;81.26
37972;BME280;23794;48.234;8.344;2023-12-20T13:05:08;94510.25;;;2.77;81.26
37972;BME280;23794;48.234;8.344;2023-12-20T13:07:36;94492.88;;;2.78;81.75
37972;BME280;23794;48.234;8.344;2023-12-20T13:10:04;94497.47;;;2.90;80.42
37972;BME280;23794;48.234;8.344;2023-12-20T13:12:32;94496.28;;;3.03;80.49